Time;durP1;ratioP1;P1;durP2;ratioP2;P2;SDS_P1;SDS_P2;PMS_P1;PMS_P2;Temp;Humidity;BMP_temperature;BMP_pressure;BME280_temperature;BME280_humidity;BME280_pressure;Samples;Min_cycle;Max_cycle;Signal;HPM_P1;HPM_P2
2022/07/21 00:01:01;;;;;;;9.25;8.30;;;18.20;99.90;;;;;;5072938;28;20200;-75
2022/07/21 00:03:28;;;;;;;9.18;8.27;;;18.20;99.90;;;;;;5072772;28;20200;-76
2022/07/21 00:05:55;;;;;;;9.15;8.25;;;18.20;99.90;;;;;;5073033;28;20201;-75
2022/07/21 00:08:21;;;;;;;10.55;9.00;;;18.20;99.90;;;;;;5072778;28;20204;-76
2022/07/21 00:10:48;;;;;;;9.60;8.63;;;18.20;99.90;;;;;;5072798;28;20197;-76
2022/07/21 00:13:15;;;;;;;10.63;9.40;;;18.30;99.90;;;;;;5072794;28;20250;-75
2022/07/21 00:15:42;;;;;;;17.75;11.18;;;18.40;99.90;;;;;;5072738;28;20243;-75
2022/07/21 00:18:10;;;;;;;19.77;11.90;;;18.60;99.90;;;;;;5072923;28;20278;-75
2022/07/21 00:20:36;;;;;;;15.73;11.02;;;18.50;99.90;;;;;;5073095;28;20234;-74
2022/07/21 00:23:03;;;;;;;14.73;10.90;;;18.30;99.90;;;;;;5072966;28;20200;-74
2022/07/21 00:25:30;;;;;;;14.80;10.77;;;18.60;99.90;;;;;;5072919;28;20243;-74
2022/07/21 00:27:57;;;;;;;13.32;11.68;;;18.50;99.90;;;;;;5072829;28;20258;-74
2022/07/21 00:30:24;;;;;;;15.32;12.80;;;18.50;99.90;;;;;;5072578;28;20801;-75
2022/07/21 00:32:51;;;;;;;15.55;11.50;;;18.70;99.90;;;;;;5072748;28;20254;-75
2022/07/21 00:35:18;;;;;;;14.50;12.98;;;18.70;99.90;;;;;;5072715;28;20196;-75
2022/07/21 00:37:45;;;;;;;15.77;13.68;;;18.70;99.90;;;;;;5072572;28;20278;-75
2022/07/21 00:40:15;;;;;;;13.85;12.48;;;18.70;99.90;;;;;;5072380;28;20224;-75
2022/07/21 00:42:43;;;;;;;15.48;13.43;;;18.60;99.90;;;;;;5072480;28;20662;-75
2022/07/21 00:45:11;;;;;;;15.18;13.15;;;18.70;99.90;;;;;;5072621;28;20341;-75
2022/07/21 00:47:39;;;;;;;15.30;12.57;;;18.70;99.90;;;;;;5072576;28;20258;-75
2022/07/21 00:50:08;;;;;;;14.48;12.98;;;18.80;99.90;;;;;;5072495;28;20318;-75
2022/07/21 00:52:36;;;;;;;13.95;11.27;;;18.60;99.90;;;;;;5072415;28;20204;-75
2022/07/21 00:55:04;;;;;;;13.40;11.98;;;18.20;99.90;;;;;;5072261;28;20537;-75
2022/07/21 00:57:31;;;;;;;13.52;12.10;;;18.20;99.90;;;;;;5072158;28;20231;-75
2022/07/21 00:59:58;;;;;;;15.10;12.18;;;18.10;99.90;;;;;;5072417;28;20200;-75
2022/07/21 01:02:26;;;;;;;14.63;13.13;;;18.10;99.90;;;;;;5072439;28;20197;-75
2022/07/21 01:04:53;;;;;;;15.27;13.48;;;18.10;99.90;;;;;;5072381;28;20208;-75
2022/07/21 01:07:21;;;;;;;13.88;12.13;;;18.10;99.90;;;;;;5072295;28;20197;-75
2022/07/21 01:09:49;;;;;;;14.43;12.85;;;18.10;99.90;;;;;;5072169;28;20839;-75
2022/07/21 01:12:16;;;;;;;14.73;13.13;;;18.10;99.90;;;;;;5072227;28;20197;-75
2022/07/21 01:14:43;;;;;;;14.48;12.82;;;18.10;99.90;;;;;;5072027;28;20595;-75
2022/07/21 01:17:10;;;;;;;17.00;13.18;;;18.00;99.90;;;;;;5072171;28;20279;-75
2022/07/21 01:19:37;;;;;;;23.13;13.95;;;18.00;99.90;;;;;;5072159;28;20288;-75
2022/07/21 01:22:06;;;;;;;15.80;14.25;;;18.10;99.90;;;;;;5072123;28;20258;-75
2022/07/21 01:24:33;;;;;;;15.48;13.88;;;18.20;99.90;;;;;;5071986;28;20197;-75
2022/07/21 01:26:59;;;;;;;15.63;13.93;;;18.10;99.90;;;;;;5073541;28;20262;-75
2022/07/21 01:29:27;;;;;;;14.88;13.15;;;18.00;99.90;;;;;;5075833;28;20262;-75
2022/07/21 01:31:54;;;;;;;15.35;13.60;;;18.00;99.90;;;;;;5075751;28;20258;-75
2022/07/21 01:34:21;;;;;;;15.10;13.32;;;18.10;99.90;;;;;;5075682;28;20257;-75
2022/07/21 01:36:47;;;;;;;19.80;15.20;;;18.20;99.90;;;;;;5075375;28;20644;-74
2022/07/21 01:42:00;;;;;;;17.92;14.95;;;18.30;99.90;;;;;;5075588;28;20270;-75
2022/07/21 01:44:26;;;;;;;15.63;14.02;;;18.30;99.90;;;;;;5075475;28;20197;-75
2022/07/21 01:46:53;;;;;;;16.52;14.82;;;18.30;99.90;;;;;;5075243;28;20713;-75
2022/07/21 01:49:22;;;;;;;19.15;15.10;;;18.30;99.90;;;;;;5075319;28;20201;-75
2022/07/21 01:51:50;;;;;;;18.48;15.13;;;18.20;99.90;;;;;;5075259;28;20726;-74
2022/07/21 01:54:18;;;;;;;15.48;13.98;;;18.10;99.90;;;;;;5075431;28;20201;-75
2022/07/21 01:56:45;;;;;;;18.30;14.85;;;18.00;99.90;;;;;;5074954;28;20200;-75
2022/07/21 01:59:12;;;;;;;20.15;15.40;;;17.90;99.90;;;;;;5075267;28;20274;-75
2022/07/21 02:01:38;;;;;;;16.92;15.20;;;17.90;99.90;;;;;;5075176;28;20241;-75
2022/07/21 02:04:06;;;;;;;16.88;15.18;;;17.80;99.90;;;;;;5074887;28;20193;-74
2022/07/21 02:06:33;;;;;;;17.50;15.57;;;17.70;99.90;;;;;;5075021;28;20809;-75
2022/07/21 02:08:59;;;;;;;19.42;16.20;;;17.70;99.90;;;;;;5075116;28;20200;-74
2022/07/21 02:11:28;;;;;;;18.52;16.23;;;17.70;99.90;;;;;;5075112;28;20201;-74
2022/07/21 02:13:55;;;;;;;17.52;15.80;;;17.70;99.90;;;;;;5074898;28;20201;-75
2022/07/21 02:16:22;;;;;;;22.20;16.52;;;17.70;99.90;;;;;;5074837;28;20201;-74
2022/07/21 02:18:48;;;;;;;20.10;18.00;;;17.70;99.90;;;;;;5074921;28;20233;-74
2022/07/21 02:21:15;;;;;;;19.48;17.45;;;17.70;99.90;;;;;;5074876;28;20205;-74
2022/07/21 02:23:42;;;;;;;21.33;19.00;;;17.70;99.90;;;;;;5074848;28;20607;-74
2022/07/21 02:26:08;;;;;;;21.05;18.73;;;17.70;99.90;;;;;;5074601;28;20201;-74
2022/07/21 02:28:36;;;;;;;24.98;20.25;;;17.70;99.90;;;;;;5074653;28;20197;-74
2022/07/21 02:31:03;;;;;;;22.60;19.65;;;17.60;99.90;;;;;;5074464;28;20645;-74
2022/07/21 02:33:30;;;;;;;23.15;20.35;;;17.60;99.90;;;;;;5074522;28;20628;-74
2022/07/21 02:35:57;;;;;;;23.73;21.25;;;17.60;99.90;;;;;;5074622;28;20247;-76
2022/07/21 02:38:24;;;;;;;23.75;21.00;;;17.70;99.90;;;;;;5073213;28;20225;-75
2022/07/21 02:40:51;;;;;;;25.45;21.15;;;17.60;99.90;;;;;;5074470;28;20212;-75
2022/07/21 02:43:17;;;;;;;25.15;20.92;;;17.70;99.90;;;;;;5074365;28;20662;-75
2022/07/21 02:45:45;;;;;;;26.95;22.35;;;17.60;99.90;;;;;;5074282;28;20193;-74
2022/07/21 02:48:13;;;;;;;25.70;21.80;;;17.70;99.90;;;;;;5074438;28;20212;-74
2022/07/21 02:50:41;;;;;;;25.88;22.65;;;17.80;99.90;;;;;;5074345;28;20250;-75
2022/07/21 02:53:11;;;;;;;26.58;23.73;;;17.90;99.90;;;;;;5074399;28;20275;-74
2022/07/21 02:55:38;;;;;;;26.83;23.48;;;17.90;99.90;;;;;;5074113;28;20553;-75
2022/07/21 02:58:06;;;;;;;30.25;23.80;;;17.80;99.90;;;;;;5073895;28;20221;-73
2022/07/21 03:00:33;;;;;;;26.63;23.58;;;17.80;99.90;;;;;;5074097;28;20197;-74
2022/07/21 03:03:02;;;;;;;25.58;22.95;;;17.80;99.90;;;;;;5073993;28;20224;-73
2022/07/21 03:05:28;;;;;;;29.30;25.70;;;17.90;99.90;;;;;;5073973;28;20207;-74
2022/07/21 03:07:55;;;;;;;29.55;26.27;;;17.90;99.90;;;;;;5073916;28;20209;-74
2022/07/21 03:10:22;;;;;;;31.92;26.73;;;18.00;99.90;;;;;;5073761;28;20277;-73
2022/07/21 03:12:49;;;;;;;33.92;30.25;;;18.00;99.90;;;;;;5073685;28;20567;-73
2022/07/21 03:15:15;;;;;;;33.83;29.30;;;18.00;99.90;;;;;;5073623;28;20713;-73
2022/07/21 03:17:42;;;;;;;33.08;29.60;;;18.10;99.90;;;;;;5073627;28;20213;-73
2022/07/21 03:20:11;;;;;;;38.53;31.42;;;18.10;99.90;;;;;;5073785;28;20254;-73
2022/07/21 03:22:38;;;;;;;34.58;30.88;;;18.10;99.90;;;;;;5073627;28;20197;-73
2022/07/21 03:25:06;;;;;;;35.78;32.00;;;18.10;99.90;;;;;;5073536;28;20265;-72
2022/07/21 03:27:35;;;;;;;35.95;32.10;;;18.10;99.90;;;;;;5073389;28;20201;-73
2022/07/21 03:30:03;;;;;;;39.80;35.53;;;18.10;99.90;;;;;;5073758;28;20197;-74
2022/07/21 03:32:30;;;;;;;40.55;35.20;;;18.10;99.90;;;;;;5073480;28;20196;-73
2022/07/21 03:34:56;;;;;;;39.25;34.35;;;18.20;99.90;;;;;;5073315;28;20644;-73
2022/07/21 03:37:24;;;;;;;38.00;34.03;;;18.20;99.90;;;;;;5073045;28;20583;-73
2022/07/21 03:39:51;;;;;;;39.08;34.95;;;18.20;99.90;;;;;;5073089;28;20286;-73
2022/07/21 03:42:18;;;;;;;40.95;36.45;;;18.30;99.90;;;;;;5073313;28;20196;-73
2022/07/21 03:44:44;;;;;;;40.17;35.75;;;18.30;99.90;;;;;;5073386;28;20271;-73
2022/07/21 03:47:11;;;;;;;37.22;33.53;;;18.40;99.90;;;;;;5073175;28;20211;-73
2022/07/21 03:49:38;;;;;;;35.42;31.75;;;18.50;99.90;;;;;;5072909;28;20204;-73
2022/07/21 03:52:05;;;;;;;40.60;34.63;;;18.50;99.90;;;;;;5073082;28;20193;-73
2022/07/21 03:54:33;;;;;;;35.83;32.13;;;18.40;99.90;;;;;;5073062;28;20333;-72
2022/07/21 03:56:59;;;;;;;34.08;28.98;;;18.50;99.90;;;;;;5073190;28;20239;-73
2022/07/21 03:59:26;;;;;;;35.00;31.20;;;18.50;99.90;;;;;;5072838;28;20627;-73
2022/07/21 04:01:53;;;;;;;32.97;29.42;;;18.60;99.90;;;;;;5072930;28;20197;-73
2022/07/21 04:04:19;;;;;;;33.60;30.30;;;18.50;99.90;;;;;;5072934;28;20656;-73
2022/07/21 04:06:46;;;;;;;34.42;30.80;;;18.40;99.90;;;;;;5072710;28;20196;-73
2022/07/21 04:09:12;;;;;;;31.42;28.23;;;18.30;99.90;;;;;;5073024;28;20227;-73
2022/07/21 04:11:40;;;;;;;38.13;31.83;;;18.50;99.90;;;;;;5072658;28;20587;-73
2022/07/21 04:14:07;;;;;;;33.30;29.77;;;18.40;99.90;;;;;;5072797;28;20197;-73
2022/07/21 04:16:33;;;;;;;37.75;30.13;;;18.30;99.90;;;;;;5072801;28;20197;-73
2022/07/21 04:19:00;;;;;;;31.40;28.33;;;18.40;99.90;;;;;;5072668;28;20228;-73
2022/07/21 04:21:27;;;;;;;34.30;30.80;;;18.30;99.90;;;;;;5072557;28;20201;-72
2022/07/21 04:23:53;;;;;;;33.72;29.58;;;18.30;99.90;;;;;;5072606;28;20675;-74
2022/07/21 04:26:21;;;;;;;33.70;30.20;;;18.40;99.90;;;;;;5072876;28;20255;-73
2022/07/21 04:28:49;;;;;;;30.50;27.25;;;18.40;99.90;;;;;;5072758;28;20318;-73
2022/07/21 04:31:15;;;;;;;29.98;27.08;;;18.30;99.90;;;;;;5072547;28;20207;-73
2022/07/21 04:33:42;;;;;;;29.65;26.58;;;18.40;99.90;;;;;;5072574;28;20201;-73
2022/07/21 04:36:09;;;;;;;29.70;26.45;;;18.50;99.90;;;;;;5072528;28;20648;-73
2022/07/21 04:38:36;;;;;;;29.70;26.80;;;18.50;99.90;;;;;;5072521;28;20270;-73
2022/07/21 04:41:02;;;;;;;31.83;28.65;;;18.50;99.90;;;;;;5072616;28;20197;-75
2022/07/21 04:43:29;;;;;;;29.17;26.20;;;18.50;99.90;;;;;;5072480;28;20303;-74
2022/07/21 04:45:57;;;;;;;29.33;26.20;;;18.50;99.90;;;;;;5072461;28;20205;-74
2022/07/21 04:48:23;;;;;;;27.92;25.08;;;18.40;99.90;;;;;;5072396;28;20201;-74
2022/07/21 04:50:51;;;;;;;27.65;25.02;;;18.50;99.90;;;;;;5072471;28;20205;-75
2022/07/21 04:53:17;;;;;;;28.23;25.42;;;18.70;99.90;;;;;;5072583;28;20197;-74
2022/07/21 04:55:44;;;;;;;28.50;25.80;;;18.60;99.90;;;;;;5072265;28;20648;-76
2022/07/21 04:58:10;;;;;;;26.88;24.23;;;18.70;99.90;;;;;;5072401;28;20228;-75
2022/07/21 05:00:37;;;;;;;26.13;23.63;;;18.50;99.90;;;;;;5072386;28;20714;-75
2022/07/21 05:03:05;;;;;;;27.60;24.77;;;18.50;99.90;;;;;;5075333;28;20251;-75
2022/07/21 05:05:31;;;;;;;25.10;22.83;;;18.60;99.90;;;;;;5076177;28;20254;-78
2022/07/21 05:07:58;;;;;;;26.00;23.27;;;18.60;99.90;;;;;;5078574;28;20254;-77
2022/07/21 05:10:25;;;;;;;24.52;22.05;;;18.80;99.90;;;;;;5076378;28;20197;-78
2022/07/21 05:12:51;;;;;;;25.42;22.95;;;18.70;99.90;;;;;;5076334;28;20278;-78
2022/07/21 05:15:18;;;;;;;25.05;22.55;;;18.70;99.90;;;;;;5076324;28;20196;-78
2022/07/21 05:17:45;;;;;;;23.98;21.58;;;18.60;99.90;;;;;;5075809;28;20654;-77
2022/07/21 05:20:13;;;;;;;24.63;22.25;;;18.70;99.90;;;;;;5076093;28;20223;-75
2022/07/21 05:22:40;;;;;;;24.13;21.55;;;18.80;99.90;;;;;;5075956;28;20262;-78
2022/07/21 05:25:08;;;;;;;24.02;21.65;;;18.80;99.90;;;;;;5075603;28;20196;-77
2022/07/21 05:27:35;;;;;;;23.67;21.13;;;18.80;99.90;;;;;;5075799;28;20250;-76
2022/07/21 05:30:02;;;;;;;23.23;20.83;;;18.90;99.90;;;;;;5075608;28;20235;-77
2022/07/21 05:32:29;;;;;;;22.27;20.25;;;19.00;99.90;;;;;;5075294;28;20209;-77
2022/07/21 05:34:55;;;;;;;23.80;21.50;;;19.10;99.90;;;;;;5075679;28;20614;-77
2022/07/21 05:37:23;;;;;;;24.45;20.17;;;19.10;99.90;;;;;;5079539;28;20201;-78
2022/07/21 05:39:50;;;;;;;24.40;19.75;;;19.10;99.90;;;;;;5075368;28;20240;-78
2022/07/21 05:42:17;;;;;;;23.02;20.83;;;19.10;99.90;;;;;;5075260;28;20238;-78
2022/07/21 05:44:44;;;;;;;23.33;21.05;;;19.10;99.90;;;;;;5075401;28;20200;-77
2022/07/21 05:47:10;;;;;;;22.10;20.00;;;18.90;99.90;;;;;;5075475;28;20512;-78
2022/07/21 05:49:37;;;;;;;24.77;22.23;;;19.00;99.90;;;;;;5075207;28;20200;-77
2022/07/21 05:52:04;;;;;;;23.08;20.67;;;19.00;99.90;;;;;;5075150;28;20201;-78
2022/07/21 05:54:33;;;;;;;23.35;21.10;;;18.90;99.90;;;;;;5075092;28;20648;-77
2022/07/21 05:56:59;;;;;;;22.83;20.52;;;18.90;99.90;;;;;;5075217;28;20204;-78
2022/07/21 05:59:26;;;;;;;23.67;21.48;;;18.90;99.90;;;;;;5074944;28;20225;-78
2022/07/21 06:01:53;;;;;;;23.08;20.83;;;18.90;99.90;;;;;;5075196;28;20205;-77
2022/07/21 06:04:19;;;;;;;24.27;21.70;;;18.90;99.90;;;;;;5075240;28;20201;-77
2022/07/21 06:06:46;;;;;;;23.55;21.25;;;18.90;99.90;;;;;;5075076;28;20250;-77
2022/07/21 06:09:13;;;;;;;24.50;21.95;;;19.10;99.90;;;;;;5075060;28;20200;-77
2022/07/21 06:11:41;;;;;;;24.88;22.50;;;19.00;99.90;;;;;;5075054;28;20325;-78
2022/07/21 06:14:07;;;;;;;24.20;21.88;;;19.00;99.90;;;;;;5074767;28;20644;-78
2022/07/21 06:16:34;;;;;;;24.63;22.05;;;19.10;99.90;;;;;;5075050;28;20193;-77
2022/07/21 06:19:01;;;;;;;24.40;22.02;;;19.20;99.90;;;;;;5074907;28;20293;-77
2022/07/21 06:21:28;;;;;;;25.50;22.90;;;19.20;99.90;;;;;;5074932;28;20667;-78
2022/07/21 06:23:54;;;;;;;24.63;22.13;;;19.10;99.90;;;;;;5074816;28;20201;-77
2022/07/21 06:26:21;;;;;;;23.88;21.52;;;19.20;99.90;;;;;;5074714;28;20250;-77
2022/07/21 06:28:49;;;;;;;23.05;20.77;;;19.30;99.90;;;;;;5074647;28;20267;-78
2022/07/21 06:31:16;;;;;;;24.52;22.05;;;19.30;99.90;;;;;;5074739;28;20660;-77
2022/07/21 06:33:42;;;;;;;25.90;22.38;;;19.20;99.90;;;;;;5074781;28;20201;-78
2022/07/21 06:36:09;;;;;;;24.50;22.23;;;19.30;99.90;;;;;;5074677;28;20251;-77
2022/07/21 06:38:36;;;;;;;23.00;20.70;;;19.40;99.90;;;;;;5074201;28;20220;-77
2022/07/21 06:41:03;;;;;;;24.52;21.67;;;19.50;99.90;;;;;;5074173;28;20231;-77
2022/07/21 06:43:29;;;;;;;24.15;21.88;;;19.50;99.90;;;;;;5074339;28;20249;-78
2022/07/21 06:45:58;;;;;;;24.13;21.45;;;19.50;99.90;;;;;;5074617;28;20193;-78
2022/07/21 06:48:25;;;;;;;25.15;22.75;;;19.30;99.90;;;;;;5074528;28;20197;-78
2022/07/21 06:50:53;;;;;;;23.15;20.83;;;19.40;99.90;;;;;;5074328;28;20226;-78
2022/07/21 06:53:20;;;;;;;23.38;21.00;;;19.50;99.90;;;;;;5074232;28;20201;-78
2022/07/21 06:55:46;;;;;;;23.75;21.50;;;19.50;99.90;;;;;;5074213;28;20231;-78
2022/07/21 06:58:15;;;;;;;22.38;20.17;;;19.40;99.90;;;;;;5074365;28;20250;-78
2022/07/21 07:00:42;;;;;;;22.80;20.45;;;19.70;99.90;;;;;;5074177;28;20209;-78
2022/07/21 07:03:10;;;;;;;21.88;19.92;;;19.80;99.90;;;;;;5074221;28;20197;-78
2022/07/21 07:05:38;;;;;;;21.75;19.65;;;19.70;99.90;;;;;;5073886;28;20193;-78
2022/07/21 07:08:05;;;;;;;21.77;19.67;;;19.60;99.90;;;;;;5073834;28;20223;-78
2022/07/21 07:10:32;;;;;;;22.23;20.08;;;19.70;99.90;;;;;;5073751;28;20213;-78
2022/07/21 07:12:59;;;;;;;21.73;19.63;;;19.80;99.90;;;;;;5073832;28;20229;-78
2022/07/21 07:15:26;;;;;;;21.60;19.40;;;20.10;99.90;;;;;;5073837;28;20297;-78
2022/07/21 07:17:53;;;;;;;22.00;19.88;;;20.30;99.90;;;;;;5073602;28;20719;-79
2022/07/21 07:20:21;;;;;;;20.70;18.60;;;20.20;99.90;;;;;;5073448;28;20225;-79
2022/07/21 07:22:48;;;;;;;20.80;18.58;;;20.50;99.90;;;;;;5073688;28;20632;-78
2022/07/21 07:25:17;;;;;;;20.30;18.38;;;20.60;99.90;;;;;;5073299;28;20204;-79
2022/07/21 07:27:44;;;;;;;18.80;16.90;;;20.90;99.90;;;;;;5073681;28;20205;-79
2022/07/21 07:30:12;;;;;;;18.00;16.27;;;21.00;99.90;;;;;;5073698;28;20551;-78
2022/07/21 07:32:39;;;;;;;18.23;16.40;;;21.30;99.90;;;;;;5073533;28;20197;-80
2022/07/21 07:35:07;;;;;;;16.23;14.73;;;21.50;99.90;;;;;;5073468;28;20201;-79
2022/07/21 07:37:35;;;;;;;17.60;15.82;;;21.80;99.90;;;;;;5073338;28;20867;-81
2022/07/21 07:40:02;;;;;;;16.35;14.85;;;21.80;99.90;;;;;;5073229;28;20241;-79
2022/07/21 07:42:29;;;;;;;17.30;15.70;;;22.00;99.90;;;;;;5073417;28;20254;-79
2022/07/21 07:44:55;;;;;;;15.40;13.90;;;22.10;99.90;;;;;;5073347;28;20197;-78
2022/07/21 07:47:22;;;;;;;14.60;13.20;;;22.10;99.90;;;;;;5075431;28;20196;-79
2022/07/21 07:49:50;;;;;;;13.98;12.77;;;22.30;99.90;;;;;;5073089;28;20247;-80
2022/07/21 07:52:17;;;;;;;13.60;12.30;;;22.60;99.90;;;;;;5073411;28;20197;-80
2022/07/21 07:54:45;;;;;;;14.43;13.07;;;22.40;99.90;;;;;;5073226;28;20266;-80
2022/07/21 07:57:12;;;;;;;13.63;12.38;;;22.70;99.90;;;;;;5073203;28;20203;-80
2022/07/21 07:59:38;;;;;;;13.98;12.77;;;22.90;99.90;;;;;;5073298;28;20274;-80
2022/07/21 08:02:05;;;;;;;13.82;12.52;;;22.70;99.90;;;;;;5073041;28;20193;-80
2022/07/21 08:04:31;;;;;;;13.35;12.10;;;22.60;99.90;;;;;;5072975;28;20347;-80
2022/07/21 08:06:58;;;;;;;13.98;12.50;;;22.20;99.90;;;;;;5073030;28;20255;-80
2022/07/21 08:09:25;;;;;;;12.98;11.80;;;22.50;99.90;;;;;;5073700;28;20197;-79
2022/07/21 08:11:53;;;;;;;14.02;12.63;;;22.50;99.90;;;;;;5074377;28;20197;-79
2022/07/21 08:14:19;;;;;;;14.05;12.73;;;22.10;99.90;;;;;;5075041;28;20201;-78
2022/07/21 08:16:46;;;;;;;15.25;13.63;;;22.00;99.90;;;;;;5073361;28;20200;-78
2022/07/21 08:19:13;;;;;;;13.57;12.27;;;21.90;99.90;;;;;;5073203;28;20221;-80
2022/07/21 08:21:40;;;;;;;13.60;11.95;;;22.10;99.90;;;;;;5072902;28;20219;-80
2022/07/21 08:24:08;;;;;;;14.63;13.20;;;22.60;99.90;;;;;;5072608;28;20732;-80
2022/07/21 08:26:35;;;;;;;14.60;13.10;;;22.70;99.90;;;;;;5072792;28;20406;-79
2022/07/21 08:29:04;;;;;;;14.85;13.43;;;22.30;99.90;;;;;;5072646;28;20258;-79
2022/07/21 08:31:31;;;;;;;14.35;12.95;;;22.20;99.90;;;;;;5072593;28;20232;-79
2022/07/21 08:33:57;;;;;;;14.60;13.07;;;22.50;99.90;;;;;;5072736;28;20201;-80
2022/07/21 08:36:24;;;;;;;15.00;13.57;;;22.60;99.90;;;;;;5073287;28;20251;-80
2022/07/21 08:38:51;;;;;;;16.95;14.85;;;22.70;99.90;;;;;;5076625;28;20228;-79
2022/07/21 08:41:17;;;;;;;14.23;12.88;;;22.90;99.90;;;;;;5076686;28;20196;-80
2022/07/21 08:43:44;;;;;;;14.18;12.88;;;23.20;99.90;;;;;;5076576;28;20197;-80
2022/07/21 08:46:12;;;;;;;14.68;13.20;;;23.00;99.90;;;;;;5076937;28;20256;-80
2022/07/21 08:48:40;;;;;;;15.23;13.63;;;22.80;99.90;;;;;;5078859;28;20265;-79
2022/07/21 08:51:06;;;;;;;14.10;12.80;;;22.90;99.90;;;;;;5077547;28;20201;-81
2022/07/21 08:53:33;;;;;;;14.27;12.98;;;22.90;99.90;;;;;;5075620;28;20197;-81
2022/07/21 08:56:00;;;;;;;12.13;11.00;;;22.80;99.90;;;;;;5076697;28;20660;-81
2022/07/21 08:58:26;;;;;;;11.70;10.52;;;22.70;99.90;;;;;;5076409;28;20205;-80
2022/07/21 09:00:54;;;;;;;11.88;10.35;;;22.50;99.90;;;;;;5076722;28;20274;-79
2022/07/21 09:03:24;;;;;;;11.57;10.48;;;22.70;99.90;;;;;;5076678;28;20204;-79
2022/07/21 09:06:04;;;;;;;10.98;9.98;;;23.00;99.90;;;;;;5076400;28;20193;-80
2022/07/21 09:08:32;;;;;;;10.75;9.65;;;23.70;99.90;;;;;;5076330;28;20197;-80
2022/07/21 09:11:10;;;;;;;12.02;10.73;;;24.00;99.90;;;;;;5076236;28;20292;-81
2022/07/21 09:13:37;;;;;;;11.93;10.55;;;23.90;99.90;;;;;;5076204;28;20200;-80
2022/07/21 09:16:04;;;;;;;11.23;10.23;;;23.90;99.90;;;;;;5076402;28;20198;-80
2022/07/21 09:18:32;;;;;;;11.32;10.23;;;24.10;99.90;;;;;;5076118;28;20197;-80
2022/07/21 09:21:00;;;;;;;11.25;10.30;;;24.30;99.90;;;;;;5075773;28;20557;-80
2022/07/21 09:23:27;;;;;;;11.40;10.35;;;24.70;99.90;;;;;;5076071;28;20205;-80
2022/07/21 09:25:55;;;;;;;11.60;10.30;;;24.00;99.90;;;;;;5076223;28;20205;-81
2022/07/21 09:28:24;;;;;;;11.10;10.00;;;24.30;99.90;;;;;;5076072;28;20201;-80
2022/07/21 09:30:55;;;;;;;9.32;8.43;;;24.20;99.90;;;;;;5075996;28;20279;-80
2022/07/21 09:33:27;;;;;;;9.43;8.60;;;24.70;99.90;;;;;;5075902;28;20201;-80
2022/07/21 09:36:02;;;;;;;9.70;8.90;;;24.80;99.90;;;;;;5076316;28;20204;-80
2022/07/21 09:38:30;;;;;;;13.32;9.23;;;24.30;99.90;;;;;;5075420;28;20196;-80
2022/07/21 09:41:04;;;;;;;10.23;9.30;;;24.50;99.90;;;;;;5075738;28;20228;-80
2022/07/21 09:43:41;;;;;;;9.93;8.93;;;24.40;99.90;;;;;;5075489;28;20203;-80
2022/07/21 09:46:11;;;;;;;10.27;9.20;;;24.50;99.90;;;;;;5075744;28;20196;-80
2022/07/21 09:48:39;;;;;;;10.30;9.43;;;24.40;99.90;;;;;;5075204;28;20254;-80
2022/07/21 09:51:28;;;;;;;9.95;8.95;;;24.50;99.90;;;;;;5075482;28;20200;-80
2022/07/21 09:53:57;;;;;;;9.43;8.63;;;24.20;99.90;;;;;;5075295;28;20556;-80
2022/07/21 09:56:26;;;;;;;11.52;8.93;;;24.20;99.90;;;;;;5075476;28;20270;-81
2022/07/21 09:58:54;;;;;;;8.65;7.95;;;24.60;99.90;;;;;;5075367;28;20197;-80
2022/07/21 10:01:21;;;;;;;7.60;7.00;;;24.60;99.90;;;;;;5075122;28;20221;-80
2022/07/21 10:03:50;;;;;;;7.07;6.47;;;24.80;99.90;;;;;;5075349;28;20204;-80
2022/07/21 10:06:18;;;;;;;11.85;7.25;;;24.70;99.90;;;;;;5075294;28;20258;-80
2022/07/21 10:08:47;;;;;;;7.68;6.97;;;25.10;99.90;;;;;;5074916;28;20554;-80
2022/07/21 10:11:14;;;;;;;6.80;6.20;;;24.90;99.90;;;;;;5075262;28;20278;-80
2022/07/21 10:13:40;;;;;;;6.90;6.15;;;25.10;99.90;;;;;;5075221;28;20201;-79
2022/07/21 10:16:10;;;;;;;6.38;5.78;;;25.30;99.90;;;;;;5075129;28;20197;-80
2022/07/21 10:18:40;;;;;;;8.57;6.28;;;25.90;99.90;;;;;;5074992;28;20201;-80
2022/07/21 10:21:16;;;;;;;9.38;6.38;;;26.40;99.90;;;;;;5074827;28;20229;-80
2022/07/21 10:23:45;;;;;;;8.35;6.85;;;26.50;99.90;;;;;;5074894;28;20250;-79
2022/07/21 10:26:12;;;;;;;7.68;6.97;;;26.00;99.90;;;;;;5074600;28;20201;-79
2022/07/21 10:28:40;;;;;;;7.03;6.25;;;25.40;99.90;;;;;;5074971;28;20201;-79
2022/07/21 10:31:16;;;;;;;8.68;6.93;;;26.20;99.90;;;;;;5074887;28;20437;-80
2022/07/21 10:34:00;;;;;;;7.65;6.90;;;25.70;99.90;;;;;;5074584;28;20567;-81
2022/07/21 10:36:43;;;;;;;7.90;6.57;;;25.70;99.90;;;;;;5075056;28;20599;-81
2022/07/21 10:39:26;;;;;;;7.30;6.70;;;25.90;99.90;;;;;;5074614;28;20229;-82
2022/07/21 10:41:56;;;;;;;8.48;7.00;;;26.50;99.90;;;;;;5074609;28;20255;-81
2022/07/21 10:44:49;;;;;;;6.95;6.35;;;26.50;99.90;;;;;;5074511;28;20201;-81
2022/07/21 10:47:19;;;;;;;7.38;6.45;;;26.90;99.90;;;;;;5074390;28;20197;-81
2022/07/21 10:49:49;;;;;;;7.70;6.50;;;27.40;99.90;;;;;;5074751;28;20324;-80
2022/07/21 10:52:53;;;;;;;6.85;6.05;;;27.50;99.90;;;;;;5074188;28;20204;-81
2022/07/21 10:55:26;;;;;;;7.72;5.90;;;27.20;99.90;;;;;;5074145;28;20200;-80
2022/07/21 10:58:25;;;;;;;7.22;5.97;;;27.70;99.90;;;;;;5074502;28;20203;-80
2022/07/21 11:00:53;;;;;;;7.05;6.20;;;27.80;99.90;;;;;;5066358;28;20225;-80
2022/07/21 11:03:25;;;;;;;7.15;6.38;;;28.40;97.30;;;;;;5074016;28;20193;-80
2022/07/21 11:06:14;;;;;;;6.85;6.15;;;27.30;99.20;;;;;;5073981;28;20250;-80
2022/07/21 11:08:43;;;;;;;6.13;5.63;;;27.10;99.90;;;;;;5073797;28;20200;-80
2022/07/21 11:11:13;;;;;;;5.88;5.35;;;28.20;97.50;;;;;;5073728;28;20640;-79
2022/07/21 11:14:00;;;;;;;6.65;5.18;;;28.70;94.70;;;;;;5073911;28;20197;-80
2022/07/21 11:17:08;;;;;;;7.07;5.10;;;29.00;93.60;;;;;;5074161;28;20201;-80
2022/07/21 11:19:41;;;;;;;5.97;5.35;;;29.50;90.80;;;;;;5073937;28;20259;-80
2022/07/21 11:22:11;;;;;;;6.00;5.20;;;29.40;82.90;;;;;;5073797;28;20197;-80
2022/07/21 11:24:39;;;;;;;6.07;5.57;;;30.00;84.90;;;;;;5073678;28;20200;-79
2022/07/21 11:27:09;;;;;;;5.50;5.07;;;30.10;80.60;;;;;;5073686;28;20235;-79
2022/07/21 11:29:37;;;;;;;5.10;4.60;;;31.30;70.60;;;;;;5073677;28;20200;-79
2022/07/21 11:32:05;;;;;;;4.63;4.28;;;31.20;65.80;;;;;;5073782;28;20250;-79
2022/07/21 11:34:47;;;;;;;5.93;4.20;;;31.80;58.40;;;;;;5073675;28;20193;-80
2022/07/21 11:37:18;;;;;;;4.90;4.47;;;31.70;57.30;;;;;;5073919;28;20196;-80
2022/07/21 11:39:45;;;;;;;6.07;4.80;;;30.90;56.30;;;;;;5073645;28;20243;-79
2022/07/21 11:42:15;;;;;;;4.68;4.28;;;30.50;57.10;;;;;;5073509;28;20193;-80
2022/07/21 11:44:42;;;;;;;6.18;4.32;;;30.00;56.80;;;;;;5073533;28;20208;-79
2022/07/21 11:47:12;;;;;;;5.13;4.63;;;30.30;57.40;;;;;;5073348;28;20192;-78
2022/07/21 11:49:39;;;;;;;5.30;4.75;;;31.10;53.90;;;;;;5073471;28;20274;-79
2022/07/21 11:52:08;;;;;;;4.95;4.55;;;31.60;54.00;;;;;;5073230;28;20196;-79
2022/07/21 11:54:38;;;;;;;4.82;4.43;;;32.10;51.90;;;;;;5073334;28;20197;-79
2022/07/21 11:57:07;;;;;;;5.25;4.20;;;30.50;52.40;;;;;;5073216;28;20207;-79
2022/07/21 11:59:37;;;;;;;6.18;4.47;;;30.50;54.20;;;;;;5073055;28;20718;-79
2022/07/21 12:02:07;;;;;;;5.25;4.78;;;31.30;52.00;;;;;;5073020;28;20285;-79
2022/07/21 12:04:39;;;;;;;5.35;4.85;;;30.70;52.90;;;;;;5073231;28;20200;-79
2022/07/21 12:07:11;;;;;;;4.90;4.50;;;31.10;52.20;;;;;;5073259;28;20193;-79
2022/07/21 12:09:38;;;;;;;5.80;5.20;;;30.20;51.90;;;;;;5073052;28;20200;-79
2022/07/21 12:12:06;;;;;;;6.18;5.50;;;28.40;55.20;;;;;;5072697;28;20242;-80
2022/07/21 12:14:42;;;;;;;5.90;5.30;;;28.70;58.90;;;;;;5073004;28;20247;-80
2022/07/21 12:17:09;;;;;;;5.53;5.03;;;29.80;57.50;;;;;;5072841;28;20644;-80
2022/07/21 12:19:36;;;;;;;5.32;4.88;;;31.10;54.30;;;;;;5073041;28;20205;-79
2022/07/21 12:22:03;;;;;;;6.03;5.18;;;30.80;53.60;;;;;;5072833;28;20759;-79
2022/07/21 12:24:49;;;;;;;5.50;5.10;;;31.40;51.90;;;;;;5072759;28;20212;-79
2022/07/21 12:27:17;;;;;;;5.68;4.80;;;32.70;51.90;;;;;;5073691;28;20250;-79
2022/07/21 12:29:45;;;;;;;5.32;4.82;;;32.10;50.30;;;;;;5073441;28;20652;-79
2022/07/21 12:32:12;;;;;;;5.60;5.03;;;32.30;48.60;;;;;;5072999;28;20200;-79
2022/07/21 12:34:50;;;;;;;4.93;4.53;;;31.40;49.60;;;;;;5072874;28;20201;-78
2022/07/21 12:37:16;;;;;;;4.68;4.28;;;30.10;50.30;;;;;;5072714;28;20201;-79
2022/07/21 12:39:58;;;;;;;5.15;4.55;;;29.70;50.40;;;;;;5072396;28;20672;-79
2022/07/21 12:42:31;;;;;;;5.15;4.75;;;29.70;51.10;;;;;;5072134;28;20224;-79